createdAt,value
2022-12-25T00:02:23.475Z,28.37
2022-12-25T00:04:51.292Z,29.93
2022-12-25T00:07:19.055Z,30.63
2022-12-25T00:09:46.818Z,31.93
2022-12-25T00:12:16.153Z,30.13
2022-12-25T00:14:44.034Z,34.70
2022-12-25T00:17:11.794Z,29.57
2022-12-25T00:19:39.660Z,31.57
2022-12-25T00:22:07.580Z,31.37
2022-12-25T00:24:35.294Z,30.07
2022-12-25T00:27:03.115Z,28.67
2022-12-25T00:29:32.219Z,28.67
2022-12-25T00:32:00.485Z,30.93
2022-12-25T00:34:28.410Z,33.37
2022-12-25T00:36:56.250Z,46.00
2022-12-25T00:39:24.360Z,52.73
2022-12-25T00:42:10.781Z,29.03
2022-12-25T00:44:39.865Z,28.17
2022-12-25T00:47:07.668Z,30.27
2022-12-25T00:49:35.567Z,28.03
2022-12-25T00:52:03.905Z,28.73
2022-12-25T00:54:31.712Z,27.13
2022-12-25T00:56:59.647Z,29.07
2022-12-25T00:59:31.223Z,28.13
2022-12-25T01:02:21.387Z,27.43
2022-12-25T01:04:50.728Z,26.07
2022-12-25T01:07:19.286Z,27.67
2022-12-25T01:10:06.099Z,25.47
2022-12-25T01:12:38.461Z,25.07
2022-12-25T01:15:09.267Z,24.53
2022-12-25T01:17:38.506Z,23.13
2022-12-25T01:20:08.098Z,23.57
2022-12-25T01:22:36.077Z,24.23
2022-12-25T01:25:05.600Z,22.87
2022-12-25T01:27:33.690Z,22.00
2022-12-25T01:30:01.601Z,22.77
2022-12-25T01:32:29.413Z,21.03
2022-12-25T01:34:58.580Z,22.20
2022-12-25T01:37:26.365Z,21.27
2022-12-25T01:39:54.119Z,20.77
2022-12-25T01:42:26.157Z,21.43
2022-12-25T01:45:37.661Z,20.83
2022-12-25T01:48:14.641Z,18.40
2022-12-25T01:50:49.596Z,18.80
2022-12-25T01:53:17.727Z,19.35
2022-12-25T01:55:50.991Z,17.87
2022-12-25T01:58:19.132Z,18.43
2022-12-25T02:00:47.324Z,18.47
2022-12-25T02:03:15.510Z,18.50
2022-12-25T02:05:47.007Z,19.20
2022-12-25T02:08:19.511Z,19.03
2022-12-25T02:10:47.607Z,18.30
2022-12-25T02:13:19.446Z,19.77
2022-12-25T02:16:01.233Z,17.83
2022-12-25T02:18:40.066Z,18.37
2022-12-25T02:21:57.877Z,18.67
2022-12-25T02:24:53.123Z,17.87
2022-12-25T02:27:54.819Z,17.00
2022-12-25T02:30:23.997Z,15.87
2022-12-25T02:33:18.966Z,16.90
2022-12-25T02:35:52.138Z,15.23
2022-12-25T02:38:29.743Z,16.37
2022-12-25T02:41:03.835Z,16.73
2022-12-25T02:43:58.177Z,16.93
2022-12-25T02:46:51.543Z,17.13
2022-12-25T02:49:43.379Z,16.30
2022-12-25T02:52:35.759Z,17.00
2022-12-25T02:55:30.156Z,17.00
2022-12-25T02:58:23.036Z,16.60
2022-12-25T03:01:18.214Z,16.53
2022-12-25T03:04:11.964Z,17.40
2022-12-25T03:06:55.492Z,16.20
2022-12-25T03:09:47.887Z,16.20
2022-12-25T03:12:26.448Z,15.23
2022-12-25T03:15:13.006Z,16.77
2022-12-25T03:17:41.052Z,15.27
2022-12-25T03:20:29.897Z,15.60
2022-12-25T03:23:16.979Z,16.47
2022-12-25T03:26:03.719Z,16.50
2022-12-25T03:28:31.609Z,16.93
2022-12-25T03:31:13.340Z,15.97
2022-12-25T03:34:38.816Z,16.37
2022-12-25T03:37:26.386Z,15.83
2022-12-25T03:40:24.197Z,16.53
2022-12-25T03:43:20.351Z,17.40
2022-12-25T03:46:15.440Z,16.27
2022-12-25T03:49:10.027Z,15.63
2022-12-25T03:52:01.849Z,16.70
2022-12-25T03:54:53.783Z,16.63
2022-12-25T03:57:40.162Z,15.23
2022-12-25T04:00:28.421Z,16.67
2022-12-25T04:03:15.050Z,15.67
2022-12-25T04:06:12.424Z,16.20
2022-12-25T04:08:58.596Z,16.67
2022-12-25T04:14:51.133Z,17.10
2022-12-25T04:17:37.520Z,18.07
2022-12-25T04:20:26.389Z,16.93
2022-12-25T04:23:12.648Z,17.20
2022-12-25T04:25:59.045Z,16.93
2022-12-25T04:28:46.701Z,17.33
2022-12-25T04:31:33.182Z,16.57
2022-12-25T04:34:19.677Z,16.40
2022-12-25T04:36:47.493Z,15.67
2022-12-25T04:39:15.315Z,16.27
2022-12-25T04:41:43.122Z,16.33
2022-12-25T04:44:12.618Z,15.63
2022-12-25T04:46:40.519Z,16.57
2022-12-25T04:49:08.337Z,14.77
2022-12-25T04:51:37.074Z,15.80
2022-12-25T04:54:05.348Z,14.23
2022-12-25T04:56:33.599Z,15.30
2022-12-25T04:59:01.525Z,14.90
2022-12-25T05:01:30.750Z,14.77
2022-12-25T05:03:58.818Z,14.13
2022-12-25T05:06:26.857Z,13.77
2022-12-25T05:08:54.768Z,13.03
2022-12-25T05:11:22.651Z,12.97
2022-12-25T05:13:50.534Z,13.37
2022-12-25T05:16:20.894Z,13.23
2022-12-25T05:18:52.010Z,13.00
2022-12-25T05:21:20.457Z,12.50
2022-12-25T05:23:50.683Z,12.80
2022-12-25T05:26:23.031Z,12.10
2022-12-25T05:28:51.186Z,13.13
2022-12-25T05:31:19.274Z,13.10
2022-12-25T05:33:51.554Z,13.77
2022-12-25T05:36:19.820Z,13.13
2022-12-25T05:38:47.693Z,13.17
2022-12-25T05:41:15.521Z,12.90
2022-12-25T05:43:43.347Z,13.40
2022-12-25T05:46:13.706Z,12.67
2022-12-25T05:48:41.517Z,12.57
2022-12-25T05:51:14.330Z,12.50
2022-12-25T05:53:43.434Z,13.03
2022-12-25T05:56:11.326Z,12.83
2022-12-25T05:58:41.158Z,12.27
2022-12-25T06:01:15.655Z,12.67
2022-12-25T06:03:43.697Z,11.63
2022-12-25T06:06:13.836Z,10.73
2022-12-25T06:08:42.005Z,12.17
2022-12-25T06:11:12.528Z,10.00
2022-12-25T06:13:40.616Z,11.80
2022-12-25T06:16:11.812Z,13.43
2022-12-25T06:18:45.451Z,12.73
2022-12-25T06:21:15.926Z,13.63
2022-12-25T06:23:44.556Z,12.40
2022-12-25T06:26:16.059Z,12.83
2022-12-25T06:28:44.686Z,12.23
2022-12-25T06:31:16.193Z,11.93
2022-12-25T06:33:44.643Z,12.93
2022-12-25T06:36:17.801Z,11.63
2022-12-25T06:38:46.218Z,12.33
2022-12-25T06:41:17.211Z,12.83
2022-12-25T06:43:49.281Z,12.63
2022-12-25T06:46:17.882Z,13.13
2022-12-25T06:48:49.719Z,13.07
2022-12-25T06:51:21.728Z,13.27
2022-12-25T06:53:51.740Z,12.87
2022-12-25T06:56:23.918Z,13.17
2022-12-25T06:58:55.214Z,13.60
2022-12-25T07:01:27.414Z,13.20
2022-12-25T07:03:59.870Z,13.43
2022-12-25T07:06:29.417Z,12.90
2022-12-25T07:08:57.435Z,12.33
2022-12-25T07:11:26.248Z,13.50
2022-12-25T07:13:54.033Z,13.90
2022-12-25T07:16:21.983Z,13.70
2022-12-25T07:18:49.774Z,13.30
2022-12-25T07:21:20.257Z,14.73
2022-12-25T07:23:50.259Z,14.17
2022-12-25T07:26:18.095Z,14.17
2022-12-25T07:28:45.869Z,13.93
2022-12-25T07:31:16.828Z,13.37
2022-12-25T07:33:44.895Z,13.53
2022-12-25T07:36:14.262Z,13.87
2022-12-25T07:38:42.715Z,13.00
2022-12-25T07:41:13.054Z,12.53
2022-12-25T07:43:41.375Z,13.13
2022-12-25T07:46:10.726Z,12.43
2022-12-25T07:48:39.013Z,11.80
2022-12-25T07:51:10.951Z,12.83
2022-12-25T07:53:39.711Z,13.20
2022-12-25T07:56:12.699Z,11.77
2022-12-25T07:58:41.376Z,11.97
2022-12-25T08:01:14.910Z,10.70
2022-12-25T08:03:42.952Z,11.17
2022-12-25T08:06:11.870Z,10.23
2022-12-25T08:08:40.281Z,10.63
2022-12-25T08:11:09.881Z,10.17
2022-12-25T08:13:39.166Z,11.57
2022-12-25T08:16:10.596Z,11.10
2022-12-25T08:18:39.605Z,11.13
2022-12-25T08:21:11.138Z,10.47
2022-12-25T08:23:42.230Z,10.73
2022-12-25T08:26:14.023Z,11.20
2022-12-25T08:28:43.284Z,9.83
2022-12-25T08:31:19.142Z,10.13
2022-12-25T08:33:48.201Z,11.00
2022-12-25T08:36:17.063Z,11.10
2022-12-25T08:38:46.097Z,10.50
2022-12-25T08:41:15.883Z,9.97
2022-12-25T08:43:45.081Z,10.83
2022-12-25T08:46:13.269Z,9.43
2022-12-25T08:48:42.766Z,10.40
2022-12-25T08:51:14.734Z,9.47
2022-12-25T08:53:42.938Z,9.10
2022-12-25T08:56:11.711Z,8.90
2022-12-25T08:58:39.955Z,9.93
2022-12-25T09:01:09.226Z,10.10
2022-12-25T09:03:37.403Z,10.33
2022-12-25T09:06:08.622Z,10.40
2022-12-25T09:08:41.121Z,8.60
2022-12-25T09:11:15.308Z,8.87
2022-12-25T09:13:43.626Z,9.20
2022-12-25T09:16:15.871Z,8.63
2022-12-25T09:18:43.837Z,7.33
2022-12-25T09:21:15.271Z,8.00
2022-12-25T09:23:44.567Z,8.47
2022-12-25T09:26:15.865Z,8.93
2022-12-25T09:28:50.732Z,8.60
2022-12-25T09:31:23.041Z,7.77
2022-12-25T09:33:51.681Z,8.43
2022-12-25T09:36:21.277Z,8.33
2022-12-25T09:38:49.185Z,8.03
2022-12-25T09:41:27.052Z,8.50
2022-12-25T09:44:02.837Z,8.77
2022-12-25T09:46:41.362Z,9.17
2022-12-25T09:49:21.427Z,9.43
2022-12-25T09:51:56.029Z,9.50
2022-12-25T09:54:39.800Z,9.07
2022-12-25T09:57:12.159Z,10.10
2022-12-25T09:59:43.013Z,9.70
2022-12-25T10:02:36.084Z,10.13
2022-12-25T10:05:25.565Z,10.33
2022-12-25T10:08:08.265Z,10.67
2022-12-25T10:10:50.906Z,10.87
2022-12-25T10:13:49.433Z,11.37
2022-12-25T10:16:29.444Z,11.03
2022-12-25T10:19:12.828Z,10.63
2022-12-25T10:21:42.081Z,11.27
2022-12-25T10:24:28.350Z,11.60
2022-12-25T10:26:57.185Z,10.50
2022-12-25T10:29:32.646Z,11.10
2022-12-25T10:32:00.805Z,10.57
2022-12-25T10:34:30.208Z,10.67
2022-12-25T10:36:58.839Z,11.07
2022-12-25T10:39:26.842Z,11.07
2022-12-25T10:42:17.723Z,12.50
2022-12-25T10:44:56.587Z,11.40
2022-12-25T10:47:28.301Z,10.70
2022-12-25T10:49:59.114Z,11.07
2022-12-25T10:52:29.585Z,11.00
2022-12-25T10:54:57.540Z,10.77
2022-12-25T10:57:27.855Z,11.53
2022-12-25T10:59:56.995Z,12.33
2022-12-25T11:02:28.619Z,11.20
2022-12-25T11:05:05.492Z,10.77
2022-12-25T11:07:46.953Z,11.80
2022-12-25T11:10:22.913Z,9.90
2022-12-25T11:12:53.201Z,8.57
2022-12-25T11:15:37.668Z,9.23
2022-12-25T11:18:19.867Z,8.57
2022-12-25T11:20:51.756Z,10.00
2022-12-25T11:23:22.689Z,8.87
2022-12-25T11:25:58.291Z,10.63
2022-12-25T11:28:28.602Z,9.30
2022-12-25T11:31:02.776Z,9.43
2022-12-25T11:33:36.664Z,8.97
2022-12-25T11:36:17.316Z,9.83
2022-12-25T11:38:45.496Z,7.47
2022-12-25T11:41:20.576Z,9.70
2022-12-25T11:43:56.186Z,10.13
2022-12-25T11:46:32.813Z,10.00
2022-12-25T11:49:07.285Z,9.87
2022-12-25T11:51:44.657Z,10.07
2022-12-25T11:54:22.588Z,9.40
2022-12-25T11:56:51.104Z,10.93
2022-12-25T11:59:27.642Z,9.23
2022-12-25T12:02:03.442Z,10.77
2022-12-25T12:04:42.649Z,10.97
2022-12-25T12:07:23.627Z,12.13
2022-12-25T12:10:03.510Z,9.07
2022-12-25T12:12:49.003Z,10.37
2022-12-25T12:18:08.835Z,8.63
2022-12-25T12:20:37.683Z,10.27
2022-12-25T12:23:16.686Z,8.90
2022-12-25T12:25:45.781Z,7.33
2022-12-25T12:28:24.232Z,7.53
2022-12-25T12:31:03.506Z,9.53
2022-12-25T12:33:38.235Z,9.73
2022-12-25T12:36:11.324Z,8.88
2022-12-25T12:38:44.691Z,10.30
2022-12-25T12:41:14.586Z,11.47
2022-12-25T12:43:46.951Z,12.00
2022-12-25T12:46:29.796Z,13.63
2022-12-25T12:49:19.480Z,14.97
2022-12-25T12:51:48.161Z,13.07
2022-12-25T12:54:22.254Z,14.23
2022-12-25T12:56:58.718Z,14.60
2022-12-25T12:59:36.835Z,14.67
2022-12-25T13:02:33.956Z,17.17
2022-12-25T13:05:05.812Z,16.20
2022-12-25T13:07:57.415Z,14.70
2022-12-25T13:10:34.618Z,14.20
2022-12-25T13:13:12.521Z,15.50
2022-12-25T13:15:45.771Z,15.60
2022-12-25T13:18:14.849Z,15.53
2022-12-25T13:20:54.847Z,16.40
2022-12-25T13:23:27.935Z,15.63
2022-12-25T13:25:59.937Z,13.60
2022-12-25T13:28:30.479Z,12.97
2022-12-25T13:31:11.275Z,14.90
2022-12-25T13:33:40.895Z,15.30
2022-12-25T13:36:12.558Z,15.73
2022-12-25T13:38:45.815Z,15.00
2022-12-25T13:41:39.219Z,14.93
2022-12-25T13:44:17.512Z,13.60
2022-12-25T13:46:45.712Z,14.57
2022-12-25T13:49:16.893Z,15.03
2022-12-25T13:51:46.661Z,12.93
2022-12-25T13:54:17.931Z,11.60
2022-12-25T13:56:51.537Z,13.87
2022-12-25T13:59:22.953Z,11.40
2022-12-25T14:01:54.107Z,12.90
2022-12-25T14:04:24.245Z,12.73
2022-12-25T14:06:53.985Z,15.33
2022-12-25T14:09:23.319Z,15.00
2022-12-25T14:11:52.997Z,16.60
2022-12-25T14:14:24.242Z,15.20
2022-12-25T14:16:57.037Z,12.97
2022-12-25T14:19:28.992Z,13.03
2022-12-25T14:22:04.354Z,15.07
2022-12-25T14:24:34.835Z,17.33
2022-12-25T14:27:07.313Z,13.20
2022-12-25T14:29:40.048Z,14.60
2022-12-25T14:32:15.570Z,15.63
2022-12-25T14:34:46.306Z,18.40
2022-12-25T14:37:20.760Z,18.60
2022-12-25T14:39:57.181Z,16.60
2022-12-25T14:42:29.975Z,20.17
2022-12-25T14:45:03.410Z,18.43
2022-12-25T14:47:33.608Z,19.57
2022-12-25T14:50:01.530Z,21.77
2022-12-25T14:52:39.202Z,20.47
2022-12-25T14:55:20.101Z,21.13
2022-12-25T14:57:55.488Z,23.97
2022-12-25T15:00:29.584Z,17.25
2022-12-25T15:03:00.385Z,24.57
2022-12-25T15:05:33.322Z,28.73
2022-12-25T15:08:24.234Z,20.77
2022-12-25T15:11:00.356Z,20.27
2022-12-25T15:13:32.349Z,20.47
2022-12-25T15:16:08.903Z,18.40
2022-12-25T15:18:41.364Z,15.73
2022-12-25T15:21:16.694Z,20.47
2022-12-25T15:23:44.844Z,19.85
2022-12-25T15:26:14.626Z,21.27
2022-12-25T15:28:43.774Z,21.33
2022-12-25T15:31:22.105Z,22.70
2022-12-25T15:33:50.513Z,24.80
2022-12-25T15:36:18.348Z,22.87
2022-12-25T15:38:46.441Z,22.43
2022-12-25T15:41:37.533Z,21.27
2022-12-25T15:44:07.902Z,21.97
2022-12-25T15:46:35.769Z,21.53
2022-12-25T15:49:03.613Z,23.40
2022-12-25T15:51:31.861Z,22.87
2022-12-25T15:53:59.754Z,22.23
2022-12-25T15:56:29.678Z,20.30
2022-12-25T15:58:57.452Z,21.60
2022-12-25T16:01:26.676Z,21.33
2022-12-25T16:03:54.677Z,18.73
2022-12-25T16:06:22.427Z,19.83
2022-12-25T16:08:50.147Z,19.53
2022-12-25T16:11:17.903Z,19.77
2022-12-25T16:13:45.630Z,18.33
2022-12-25T16:16:13.504Z,20.50
2022-12-25T16:18:47.436Z,23.37
2022-12-25T16:21:19.811Z,23.17
2022-12-25T16:23:48.021Z,21.77
2022-12-25T16:26:16.281Z,24.00
2022-12-25T16:28:44.307Z,24.33
2022-12-25T16:31:12.332Z,25.03
2022-12-25T16:33:40.300Z,24.83
2022-12-25T16:36:09.828Z,24.10
2022-12-25T16:38:38.296Z,23.00
2022-12-25T16:41:06.029Z,23.80
2022-12-25T16:47:34.374Z,24.23
2022-12-25T16:50:03.885Z,23.33
2022-12-25T16:52:34.677Z,25.63
2022-12-25T16:55:04.002Z,24.80
2022-12-25T16:57:33.151Z,27.30
2022-12-25T17:00:01.159Z,23.50
2022-12-25T17:02:29.162Z,23.77
2022-12-25T17:04:57.163Z,24.20
2022-12-25T17:07:24.922Z,24.90
2022-12-25T17:09:54.092Z,25.80
2022-12-25T17:12:21.849Z,23.93
2022-12-25T17:14:49.540Z,26.23
2022-12-25T17:17:17.338Z,27.23
2022-12-25T17:19:45.354Z,23.97
2022-12-25T17:22:13.230Z,27.93
2022-12-25T17:24:41.475Z,25.50
2022-12-25T17:27:11.171Z,25.23
2022-12-25T17:29:39.845Z,29.13
2022-12-25T17:32:08.524Z,31.27
2022-12-25T17:34:36.627Z,33.67
2022-12-25T17:37:05.172Z,34.67
2022-12-25T17:39:33.133Z,29.87
2022-12-25T17:42:01.000Z,29.00
2022-12-25T17:44:30.127Z,30.30
2022-12-25T17:46:57.961Z,32.70
2022-12-25T17:49:26.280Z,27.77
2022-12-25T17:51:56.023Z,36.87
2022-12-25T17:54:23.806Z,34.30
2022-12-25T17:56:51.669Z,34.90
2022-12-25T17:59:20.478Z,38.13
2022-12-25T18:01:49.662Z,30.90
2022-12-25T18:04:18.111Z,48.57
2022-12-25T18:06:46.372Z,38.97
2022-12-25T18:09:14.102Z,52.37
2022-12-25T18:11:43.455Z,36.73
2022-12-25T18:14:14.997Z,43.50
2022-12-25T18:16:45.104Z,50.77
2022-12-25T18:19:15.922Z,52.20
2022-12-25T18:21:43.867Z,52.23
2022-12-25T18:24:12.510Z,64.60
2022-12-25T18:26:40.428Z,55.33
2022-12-25T18:29:08.152Z,51.03
2022-12-25T18:31:36.545Z,43.50
2022-12-25T18:34:04.654Z,65.20
2022-12-25T18:36:34.002Z,72.53
2022-12-25T18:39:01.948Z,75.67
2022-12-25T18:41:30.578Z,69.60
2022-12-25T18:43:59.809Z,65.70
2022-12-25T18:46:27.956Z,67.33
2022-12-25T18:48:57.867Z,76.13
2022-12-25T18:51:29.849Z,74.90
2022-12-25T18:54:04.304Z,70.33
2022-12-25T18:56:32.443Z,69.57
2022-12-25T18:59:00.633Z,63.60
2022-12-25T19:01:28.645Z,63.37
2022-12-25T19:04:04.381Z,63.67
2022-12-25T19:06:33.948Z,51.90
2022-12-25T19:09:08.955Z,51.10
2022-12-25T19:11:46.084Z,73.20
2022-12-25T19:14:15.134Z,98.47
2022-12-25T19:16:43.214Z,77.00
2022-12-25T19:19:11.176Z,101.23
2022-12-25T19:21:38.937Z,108.63
2022-12-25T19:24:07.610Z,85.07
2022-12-25T19:26:35.996Z,77.37
2022-12-25T19:29:05.100Z,76.00
2022-12-25T19:31:32.911Z,58.17
2022-12-25T19:34:00.829Z,46.33
2022-12-25T19:36:28.610Z,40.70
2022-12-25T19:38:56.515Z,43.00
2022-12-25T19:41:24.371Z,46.83
2022-12-25T19:43:52.514Z,46.70
2022-12-25T19:46:26.002Z,41.97
2022-12-25T19:48:55.862Z,37.10
2022-12-25T19:51:26.703Z,32.10
2022-12-25T19:53:58.853Z,35.57
2022-12-25T19:56:28.571Z,32.60
2022-12-25T19:58:57.404Z,33.00
2022-12-25T20:01:29.280Z,31.63
2022-12-25T20:03:57.453Z,27.10
2022-12-25T20:06:28.676Z,27.10
2022-12-25T20:08:59.561Z,26.10
2022-12-25T20:11:30.649Z,23.70
2022-12-25T20:13:59.657Z,23.53
2022-12-25T20:16:29.018Z,21.20
2022-12-25T20:18:58.622Z,25.33
2022-12-25T20:21:29.957Z,22.13
2022-12-25T20:23:58.830Z,19.70
2022-12-25T20:26:29.958Z,22.23
2022-12-25T20:28:58.980Z,21.10
2022-12-25T20:31:30.885Z,20.80
2022-12-25T20:34:04.036Z,21.77
2022-12-25T20:36:36.828Z,22.40
2022-12-25T20:39:09.640Z,21.37
2022-12-25T20:41:38.753Z,22.03
2022-12-25T20:44:09.803Z,21.67
2022-12-25T20:46:39.119Z,20.60
2022-12-25T20:49:07.263Z,20.23
2022-12-25T20:51:35.461Z,20.67
2022-12-25T20:54:07.619Z,20.90
2022-12-25T20:56:36.559Z,20.30
2022-12-25T20:59:04.396Z,20.90
2022-12-25T21:01:32.526Z,20.40
2022-12-25T21:04:01.976Z,20.67
2022-12-25T21:06:29.811Z,21.00
2022-12-25T21:08:57.685Z,21.90
2022-12-25T21:11:26.273Z,19.07
2022-12-25T21:13:53.963Z,18.33
2022-12-25T21:16:22.987Z,19.70
2022-12-25T21:18:53.519Z,19.77
2022-12-25T21:21:23.701Z,19.33
2022-12-25T21:23:51.605Z,18.03
2022-12-25T21:26:23.314Z,17.87
2022-12-25T21:28:54.981Z,19.03
2022-12-25T21:31:24.487Z,19.13
2022-12-25T21:33:57.521Z,19.57
2022-12-25T21:36:29.310Z,19.73
2022-12-25T21:39:00.047Z,19.00
2022-12-25T21:41:30.545Z,19.83
2022-12-25T21:43:59.301Z,19.77
2022-12-25T21:46:28.816Z,21.40
2022-12-25T21:48:58.377Z,21.83
2022-12-25T21:51:49.653Z,19.93
2022-12-25T21:54:19.898Z,20.23
2022-12-25T21:56:49.316Z,20.40
2022-12-25T21:59:21.101Z,18.17
2022-12-25T22:01:50.712Z,21.13
2022-12-25T22:04:21.779Z,21.20
2022-12-25T22:07:10.406Z,22.30
2022-12-25T22:09:38.255Z,21.87
2022-12-25T22:12:31.943Z,21.13
2022-12-25T22:15:02.799Z,19.95
2022-12-25T22:17:52.213Z,21.70
2022-12-25T22:20:24.367Z,26.00
2022-12-25T22:22:54.485Z,26.70
2022-12-25T22:25:24.032Z,28.87
2022-12-25T22:27:52.866Z,30.57
2022-12-25T22:30:23.778Z,33.60
2022-12-25T22:32:52.234Z,32.70
2022-12-25T22:35:22.866Z,32.80
2022-12-25T22:37:51.171Z,30.93
2022-12-25T22:40:20.956Z,33.30
2022-12-25T22:42:49.136Z,33.83
2022-12-25T22:45:17.269Z,31.60
2022-12-25T22:47:45.053Z,34.30
2022-12-25T22:50:15.048Z,36.60
2022-12-25T22:52:45.596Z,30.40
2022-12-25T22:55:17.257Z,31.87
2022-12-25T22:57:46.389Z,31.20
2022-12-25T23:00:14.644Z,28.27
2022-12-25T23:02:42.926Z,29.03
2022-12-25T23:05:11.024Z,29.80
2022-12-25T23:07:39.082Z,31.20
2022-12-25T23:10:08.610Z,31.83
2022-12-25T23:12:55.105Z,30.00
2022-12-25T23:15:24.414Z,28.20
2022-12-25T23:18:11.521Z,30.70
2022-12-25T23:20:57.583Z,29.17
2022-12-25T23:26:13.583Z,24.23
2022-12-25T23:29:02.115Z,25.40
2022-12-25T23:31:35.339Z,25.27
2022-12-25T23:34:05.221Z,23.47
2022-12-25T23:36:33.825Z,22.00
2022-12-25T23:39:09.171Z,22.50
2022-12-25T23:41:38.820Z,22.10
2022-12-25T23:44:06.888Z,20.70
2022-12-25T23:46:36.458Z,21.93
2022-12-25T23:49:05.116Z,19.87
2022-12-25T23:51:34.964Z,19.90
2022-12-25T23:54:06.381Z,21.37
2022-12-25T23:56:36.100Z,21.60
2022-12-25T23:59:04.579Z,20.23
